sensor_id;sensor_type;location;lat;lon;timestamp;pressure;altitude;pressure_sealevel;temperature;humidity
9774;BME280;4926;42.670;23.316;2022-12-24T00:02:15;94419.47;;;4.34;100.00
9774;BME280;4926;42.670;23.316;2022-12-24T00:04:42;94418.00;;;4.48;100.00
9774;BME280;4926;42.670;23.316;2022-12-24T00:07:11;94428.69;;;4.68;100.00
9774;BME280;4926;42.670;23.316;2022-12-24T00:09:40;94426.34;;;4.72;100.00
9774;BME280;4926;42.670;23.316;2022-12-24T00:12:07;94431.34;;;4.68;100.00
9774;BME280;4926;42.670;23.316;2022-12-24T00:14:36;94432.66;;;4.71;100.00
9774;BME280;4926;42.670;23.316;2022-12-24T00:17:03;94429.09;;;4.87;100.00
9774;BME280;4926;42.670;23.316;2022-12-24T00:19:34;94424.66;;;4.97;100.00
9774;BME280;4926;42.670;23.316;2022-12-24T00:22:01;94428.38;;;5.01;100.00
9774;BME280;4926;42.670;23.316;2022-12-24T00:24:27;94437.38;;;5.05;100.00
9774;BME280;4926;42.670;23.316;2022-12-24T00:26:54;94430.53;;;5.09;100.00
9774;BME280;4926;42.670;23.316;2022-12-24T00:29:21;94422.59;;;5.04;100.00
9774;BME280;4926;42.670;23.316;2022-12-24T00:31:47;94409.91;;;4.96;100.00
9774;BME280;4926;42.670;23.316;2022-12-24T00:34:17;94423.41;;;5.05;100.00
9774;BME280;4926;42.670;23.316;2022-12-24T00:36:45;94422.63;;;5.09;100.00
9774;BME280;4926;42.670;23.316;2022-12-24T00:39:12;94426.56;;;5.02;100.00
9774;BME280;4926;42.670;23.316;2022-12-24T00:41:39;94417.41;;;5.14;100.00
9774;BME280;4926;42.670;23.316;2022-12-24T00:44:07;94425.81;;;5.16;100.00
9774;BME280;4926;42.670;23.316;2022-12-24T00:46:36;94428.75;;;5.20;100.00
9774;BME280;4926;42.670;23.316;2022-12-24T00:49:04;94422.16;;;5.17;100.00
9774;BME280;4926;42.670;23.316;2022-12-24T00:51:34;94422.44;;;5.21;100.00
9774;BME280;4926;42.670;23.316;2022-12-24T00:54:03;94423.72;;;5.18;100.00
9774;BME280;4926;42.670;23.316;2022-12-24T00:56:30;94423.25;;;5.26;100.00
9774;BME280;4926;42.670;23.316;2022-12-24T00:58:57;94421.41;;;5.32;100.00
9774;BME280;4926;42.670;23.316;2022-12-24T01:01:27;94431.41;;;5.25;100.00
9774;BME280;4926;42.670;23.316;2022-12-24T01:03:54;94435.91;;;5.24;100.00
9774;BME280;4926;42.670;23.316;2022-12-24T01:06:44;94431.03;;;5.01;100.00
9774;BME280;4926;42.670;23.316;2022-12-24T01:09:11;94426.75;;;4.95;100.00
9774;BME280;4926;42.670;23.316;2022-12-24T01:11:38;94434.75;;;5.05;100.00
9774;BME280;4926;42.670;23.316;2022-12-24T01:14:05;94441.91;;;5.15;100.00
9774;BME280;4926;42.670;23.316;2022-12-24T01:16:31;94442.19;;;5.18;100.00
9774;BME280;4926;42.670;23.316;2022-12-24T01:18:58;94434.81;;;5.20;100.00
9774;BME280;4926;42.670;23.316;2022-12-24T01:21:25;94436.88;;;5.08;100.00
9774;BME280;4926;42.670;23.316;2022-12-24T01:23:51;94435.88;;;5.14;100.00
9774;BME280;4926;42.670;23.316;2022-12-24T01:26:20;94424.22;;;5.10;100.00
9774;BME280;4926;42.670;23.316;2022-12-24T01:28:49;94421.84;;;5.09;100.00
9774;BME280;4926;42.670;23.316;2022-12-24T01:31:17;94414.22;;;5.17;100.00
9774;BME280;4926;42.670;23.316;2022-12-24T01:33:59;94412.34;;;5.13;100.00
9774;BME280;4926;42.670;23.316;2022-12-24T01:36:28;94421.31;;;5.12;100.00
9774;BME280;4926;42.670;23.316;2022-12-24T01:38:58;94427.41;;;5.12;100.00
9774;BME280;4926;42.670;23.316;2022-12-24T01:41:29;94422.13;;;5.12;100.00
9774;BME280;4926;42.670;23.316;2022-12-24T01:44:16;94426.38;;;5.18;100.00
9774;BME280;4926;42.670;23.316;2022-12-24T01:46:48;94429.53;;;5.15;100.00
9774;BME280;4926;42.670;23.316;2022-12-24T01:49:17;94428.47;;;5.16;100.00
9774;BME280;4926;42.670;23.316;2022-12-24T01:51:50;94420.53;;;5.11;100.00
9774;BME280;4926;42.670;23.316;2022-12-24T01:54:21;94422.63;;;5.09;100.00
9774;BME280;4926;42.670;23.316;2022-12-24T01:56:53;94416.81;;;5.07;100.00
9774;BME280;4926;42.670;23.316;2022-12-24T01:59:21;94411.69;;;4.86;100.00
9774;BME280;4926;42.670;23.316;2022-12-24T02:01:53;94427.28;;;4.92;100.00
9774;BME280;4926;42.670;23.316;2022-12-24T02:04:30;94420.41;;;4.86;100.00
9774;BME280;4926;42.670;23.316;2022-12-24T02:06:58;94407.63;;;4.73;100.00
9774;BME280;4926;42.670;23.316;2022-12-24T02:09:25;94414.97;;;4.66;100.00
9774;BME280;4926;42.670;23.316;2022-12-24T02:11:57;94413.44;;;4.70;100.00
9774;BME280;4926;42.670;23.316;2022-12-24T02:14:24;94413.72;;;4.74;100.00
9774;BME280;4926;42.670;23.316;2022-12-24T02:16:58;94410.81;;;4.75;100.00
9774;BME280;4926;42.670;23.316;2022-12-24T02:22:57;94424.03;;;4.80;100.00
9774;BME280;4926;42.670;23.316;2022-12-24T02:25:37;94425.59;;;4.76;100.00
9774;BME280;4926;42.670;23.316;2022-12-24T02:28:15;94418.19;;;4.73;100.00
9774;BME280;4926;42.670;23.316;2022-12-24T02:30:55;94419.47;;;4.71;100.00
9774;BME280;4926;42.670;23.316;2022-12-24T02:33:27;94426.06;;;4.68;100.00
9774;BME280;4926;42.670;23.316;2022-12-24T02:36:00;94417.38;;;4.73;100.00
9774;BME280;4926;42.670;23.316;2022-12-24T02:38:33;94418.13;;;4.63;100.00
9774;BME280;4926;42.670;23.316;2022-12-24T02:41:06;94413.13;;;4.62;100.00
9774;BME280;4926;42.670;23.316;2022-12-24T02:43:34;94390.69;;;4.59;100.00
9774;BME280;4926;42.670;23.316;2022-12-24T02:46:07;94409.72;;;4.71;100.00
9774;BME280;4926;42.670;23.316;2022-12-24T02:48:38;94408.50;;;4.47;100.00
9774;BME280;4926;42.670;23.316;2022-12-24T02:51:12;94406.53;;;4.32;100.00
9774;BME280;4926;42.670;23.316;2022-12-24T02:53:42;94401.75;;;4.24;100.00
9774;BME280;4926;42.670;23.316;2022-12-24T02:56:23;94398.16;;;4.35;100.00
9774;BME280;4926;42.670;23.316;2022-12-24T02:59:08;94384.25;;;4.45;100.00
9774;BME280;4926;42.670;23.316;2022-12-24T03:01:50;94392.53;;;4.64;100.00
9774;BME280;4926;42.670;23.316;2022-12-24T03:04:26;94389.28;;;4.51;100.00
9774;BME280;4926;42.670;23.316;2022-12-24T03:07:09;94404.91;;;4.58;100.00
9774;BME280;4926;42.670;23.316;2022-12-24T03:09:48;94408.50;;;4.47;100.00
9774;BME280;4926;42.670;23.316;2022-12-24T03:12:27;94399.16;;;4.29;100.00
9774;BME280;4926;42.670;23.316;2022-12-24T03:14:56;94399.97;;;4.30;100.00
9774;BME280;4926;42.670;23.316;2022-12-24T03:17:25;94397.81;;;4.27;100.00
9774;BME280;4926;42.670;23.316;2022-12-24T03:19:53;94396.44;;;4.19;100.00
9774;BME280;4926;42.670;23.316;2022-12-24T03:22:21;94388.50;;;4.14;100.00
9774;BME280;4926;42.670;23.316;2022-12-24T03:24:48;94394.53;;;4.15;100.00
9774;BME280;4926;42.670;23.316;2022-12-24T03:27:15;94394.09;;;4.23;100.00
9774;BME280;4926;42.670;23.316;2022-12-24T03:29:46;94394.75;;;4.08;100.00
9774;BME280;4926;42.670;23.316;2022-12-24T03:32:13;94405.72;;;3.95;100.00
9774;BME280;4926;42.670;23.316;2022-12-24T03:34:41;94405.41;;;3.43;100.00
9774;BME280;4926;42.670;23.316;2022-12-24T03:37:08;94398.53;;;3.37;100.00
9774;BME280;4926;42.670;23.316;2022-12-24T03:39:37;94401.97;;;3.16;100.00
9774;BME280;4926;42.670;23.316;2022-12-24T03:42:03;94404.38;;;3.01;100.00
9774;BME280;4926;42.670;23.316;2022-12-24T03:44:30;94403.38;;;2.86;100.00
9774;BME280;4926;42.670;23.316;2022-12-24T03:46:57;94402.69;;;2.90;100.00
9774;BME280;4926;42.670;23.316;2022-12-24T03:49:23;94404.81;;;2.93;100.00
9774;BME280;4926;42.670;23.316;2022-12-24T03:51:51;94405.50;;;3.05;100.00
9774;BME280;4926;42.670;23.316;2022-12-24T03:54:18;94408.75;;;3.12;100.00
9774;BME280;4926;42.670;23.316;2022-12-24T03:56:46;94404.88;;;2.98;100.00
9774;BME280;4926;42.670;23.316;2022-12-24T03:59:13;94408.88;;;3.01;100.00
9774;BME280;4926;42.670;23.316;2022-12-24T04:01:40;94411.56;;;3.06;100.00
9774;BME280;4926;42.670;23.316;2022-12-24T04:04:06;94417.06;;;3.26;100.00
9774;BME280;4926;42.670;23.316;2022-12-24T04:06:33;94414.84;;;3.39;100.00
9774;BME280;4926;42.670;23.316;2022-12-24T04:09:01;94416.50;;;3.46;100.00
9774;BME280;4926;42.670;23.316;2022-12-24T04:11:29;94424.75;;;3.54;100.00
9774;BME280;4926;42.670;23.316;2022-12-24T04:13:56;94434.00;;;3.57;100.00
9774;BME280;4926;42.670;23.316;2022-12-24T04:16:26;94423.47;;;3.57;100.00
9774;BME280;4926;42.670;23.316;2022-12-24T04:18:53;94424.03;;;3.59;100.00
9774;BME280;4926;42.670;23.316;2022-12-24T04:21:19;94428.84;;;3.67;100.00
9774;BME280;4926;42.670;23.316;2022-12-24T04:23:49;94423.28;;;3.41;100.00
9774;BME280;4926;42.670;23.316;2022-12-24T04:26:17;94430.16;;;3.42;100.00
9774;BME280;4926;42.670;23.316;2022-12-24T04:28:44;94434.31;;;3.38;100.00
9774;BME280;4926;42.670;23.316;2022-12-24T04:31:13;94436.38;;;3.36;100.00
9774;BME280;4926;42.670;23.316;2022-12-24T04:33:41;94439.25;;;3.13;100.00
9774;BME280;4926;42.670;23.316;2022-12-24T04:36:12;94447.66;;;3.32;100.00
9774;BME280;4926;42.670;23.316;2022-12-24T04:38:39;94455.41;;;3.43;100.00
9774;BME280;4926;42.670;23.316;2022-12-24T04:41:07;94455.53;;;3.54;100.00
9774;BME280;4926;42.670;23.316;2022-12-24T04:43:39;94451.94;;;3.60;100.00
9774;BME280;4926;42.670;23.316;2022-12-24T04:46:07;94465.69;;;3.67;100.00
9774;BME280;4926;42.670;23.316;2022-12-24T04:48:35;94446.97;;;3.63;100.00
9774;BME280;4926;42.670;23.316;2022-12-24T04:51:03;94425.56;;;3.55;100.00
9774;BME280;4926;42.670;23.316;2022-12-24T04:53:30;94440.34;;;3.61;100.00
9774;BME280;4926;42.670;23.316;2022-12-24T04:55:57;94436.13;;;3.60;100.00
9774;BME280;4926;42.670;23.316;2022-12-24T04:58:24;94428.13;;;3.50;100.00
9774;BME280;4926;42.670;23.316;2022-12-24T05:00:53;94440.94;;;3.41;100.00
9774;BME280;4926;42.670;23.316;2022-12-24T05:03:23;94435.03;;;3.12;100.00
9774;BME280;4926;42.670;23.316;2022-12-24T05:05:52;94426.72;;;2.99;100.00
9774;BME280;4926;42.670;23.316;2022-12-24T05:08:19;94433.59;;;2.83;100.00
9774;BME280;4926;42.670;23.316;2022-12-24T05:10:55;94431.84;;;2.72;100.00
9774;BME280;4926;42.670;23.316;2022-12-24T05:13:23;94434.72;;;2.71;100.00
9774;BME280;4926;42.670;23.316;2022-12-24T05:15:52;94413.88;;;2.48;100.00
9774;BME280;4926;42.670;23.316;2022-12-24T05:18:22;94403.94;;;2.33;100.00
9774;BME280;4926;42.670;23.316;2022-12-24T05:20:49;94416.94;;;2.40;100.00
9774;BME280;4926;42.670;23.316;2022-12-24T05:23:17;94413.97;;;2.36;100.00
9774;BME280;4926;42.670;23.316;2022-12-24T05:26:04;94413.88;;;2.48;100.00
9774;BME280;4926;42.670;23.316;2022-12-24T05:28:47;94420.56;;;2.55;100.00
9774;BME280;4926;42.670;23.316;2022-12-24T05:31:20;94419.69;;;2.50;100.00
9774;BME280;4926;42.670;23.316;2022-12-24T05:33:53;94425.97;;;2.65;100.00
9774;BME280;4926;42.670;23.316;2022-12-24T05:36:20;94430.25;;;2.71;100.00
9774;BME280;4926;42.670;23.316;2022-12-24T05:38:47;94419.47;;;2.89;100.00
9774;BME280;4926;42.670;23.316;2022-12-24T05:41:15;94425.25;;;3.08;100.00
9774;BME280;4926;42.670;23.316;2022-12-24T05:43:41;94422.50;;;3.19;100.00
9774;BME280;4926;42.670;23.316;2022-12-24T05:46:12;94417.84;;;3.26;100.00
9774;BME280;4926;42.670;23.316;2022-12-24T05:48:40;94427.38;;;3.32;100.00
9774;BME280;4926;42.670;23.316;2022-12-24T05:51:08;94405.97;;;3.46;100.00
9774;BME280;4926;42.670;23.316;2022-12-24T05:53:36;94399.84;;;3.62;100.00
9774;BME280;4926;42.670;23.316;2022-12-24T05:56:04;94399.78;;;3.57;100.00
9774;BME280;4926;42.670;23.316;2022-12-24T05:58:31;94399.50;;;3.53;100.00
9774;BME280;4926;42.670;23.316;2022-12-24T06:01:00;94415.13;;;3.65;100.00
9774;BME280;4926;42.670;23.316;2022-12-24T06:03:29;94410.97;;;3.69;100.00
9774;BME280;4926;42.670;23.316;2022-12-24T06:06:02;94417.31;;;3.73;100.00
9774;BME280;4926;42.670;23.316;2022-12-24T06:08:29;94422.19;;;3.86;100.00
9774;BME280;4926;42.670;23.316;2022-12-24T06:10:59;94434.31;;;3.87;100.00
9774;BME280;4926;42.670;23.316;2022-12-24T06:13:29;94430.59;;;3.83;100.00
9774;BME280;4926;42.670;23.316;2022-12-24T06:15:56;94431.38;;;3.83;100.00
9774;BME280;4926;42.670;23.316;2022-12-24T06:18:23;94431.38;;;3.83;100.00
9774;BME280;4926;42.670;23.316;2022-12-24T06:20:50;94443.25;;;3.86;100.00
9774;BME280;4926;42.670;23.316;2022-12-24T06:23:23;94432.53;;;3.92;100.00
9774;BME280;4926;42.670;23.316;2022-12-24T06:25:55;94431.84;;;4.02;100.00
9774;BME280;4926;42.670;23.316;2022-12-24T06:28:22;94432.88;;;4.01;100.00
9774;BME280;4926;42.670;23.316;2022-12-24T06:30:49;94439.78;;;4.07;100.00
9774;BME280;4926;42.670;23.316;2022-12-24T06:33:17;94444.03;;;4.13;100.00
9774;BME280;4926;42.670;23.316;2022-12-24T06:35:45;94440.97;;;4.21;100.00
9774;BME280;4926;42.670;23.316;2022-12-24T06:38:14;94451.00;;;4.24;100.00
9774;BME280;4926;42.670;23.316;2022-12-24T06:40:44;94454.47;;;4.29;100.00
9774;BME280;4926;42.670;23.316;2022-12-24T06:43:11;94462.13;;;4.31;100.00
9774;BME280;4926;42.670;23.316;2022-12-24T06:45:43;94460.34;;;4.10;100.00
9774;BME280;4926;42.670;23.316;2022-12-24T06:48:10;94461.69;;;4.12;100.00
9774;BME280;4926;42.670;23.316;2022-12-24T06:50:37;94456.22;;;4.19;100.00
9774;BME280;4926;42.670;23.316;2022-12-24T06:53:06;94468.50;;;4.35;100.00
9774;BME280;4926;42.670;23.316;2022-12-24T06:55:34;94460.63;;;4.40;100.00
9774;BME280;4926;42.670;23.316;2022-12-24T06:58:03;94462.22;;;4.41;100.00
9774;BME280;4926;42.670;23.316;2022-12-24T07:00:33;94471.84;;;4.57;100.00
9774;BME280;4926;42.670;23.316;2022-12-24T07:02:59;94464.56;;;4.69;100.00
9774;BME280;4926;42.670;23.316;2022-12-24T07:05:35;94460.44;;;4.83;100.00
9774;BME280;4926;42.670;23.316;2022-12-24T07:08:02;94460.72;;;4.87;100.00
9774;BME280;4926;42.670;23.316;2022-12-24T07:10:29;94464.13;;;4.82;100.00
9774;BME280;4926;42.670;23.316;2022-12-24T07:12:58;94465.66;;;4.73;100.00
9774;BME280;4926;42.670;23.316;2022-12-24T07:15:27;94470.41;;;4.76;100.00
9774;BME280;4926;42.670;23.316;2022-12-24T07:17:54;94465.13;;;4.76;100.00
9774;BME280;4926;42.670;23.316;2022-12-24T07:20:21;94470.97;;;4.83;100.00
9774;BME280;4926;42.670;23.316;2022-12-24T07:22:47;94471.63;;;4.64;100.00
9774;BME280;4926;42.670;23.316;2022-12-24T07:25:17;94455.47;;;4.23;100.00
9774;BME280;4926;42.670;23.316;2022-12-24T07:27:44;94465.31;;;4.06;100.00
9774;BME280;4926;42.670;23.316;2022-12-24T07:30:14;94464.88;;;3.88;100.00
9774;BME280;4926;42.670;23.316;2022-12-24T07:32:42;94462.13;;;3.78;100.00
9774;BME280;4926;42.670;23.316;2022-12-24T07:35:09;94468.22;;;3.83;100.00
9774;BME280;4926;42.670;23.316;2022-12-24T07:37:36;94474.66;;;3.92;100.00
9774;BME280;4926;42.670;23.316;2022-12-24T07:40:04;94468.19;;;4.05;100.00
9774;BME280;4926;42.670;23.316;2022-12-24T07:42:34;94472.75;;;4.41;100.00
9774;BME280;4926;42.670;23.316;2022-12-24T07:45:00;94479.75;;;4.57;100.00
9774;BME280;4926;42.670;23.316;2022-12-24T07:47:27;94481.22;;;4.75;100.00
9774;BME280;4926;42.670;23.316;2022-12-24T07:49:55;94477.41;;;4.97;100.00
9774;BME280;4926;42.670;23.316;2022-12-24T07:52:22;94476.22;;;5.20;100.00
9774;BME280;4926;42.670;23.316;2022-12-24T07:54:48;94484.78;;;5.37;100.00
9774;BME280;4926;42.670;23.316;2022-12-24T07:57:17;94485.44;;;5.59;100.00
9774;BME280;4926;42.670;23.316;2022-12-24T07:59:43;94491.09;;;5.83;100.00
9774;BME280;4926;42.670;23.316;2022-12-24T08:02:15;94497.00;;;6.05;100.00
9774;BME280;4926;42.670;23.316;2022-12-24T08:04:42;94493.63;;;6.29;100.00
9774;BME280;4926;42.670;23.316;2022-12-24T08:07:10;94501.84;;;6.43;100.00
9774;BME280;4926;42.670;23.316;2022-12-24T08:09:37;94509.28;;;6.56;100.00
9774;BME280;4926;42.670;23.316;2022-12-24T08:12:04;94513.50;;;6.57;100.00
9774;BME280;4926;42.670;23.316;2022-12-24T08:14:31;94513.75;;;6.55;100.00
9774;BME280;4926;42.670;23.316;2022-12-24T08:16:57;94523.53;;;6.55;100.00
9774;BME280;4926;42.670;23.316;2022-12-24T08:19:24;94519.59;;;6.62;100.00
9774;BME280;4926;42.670;23.316;2022-12-24T08:21:51;94512.19;;;6.74;99.75
9774;BME280;4926;42.670;23.316;2022-12-24T08:24:19;94518.00;;;6.66;98.91
9774;BME280;4926;42.670;23.316;2022-12-24T08:26:46;94510.84;;;6.72;99.31
9774;BME280;4926;42.670;23.316;2022-12-24T08:29:13;94511.16;;;6.86;98.80
9774;BME280;4926;42.670;23.316;2022-12-24T08:31:40;94501.34;;;6.76;97.62
9774;BME280;4926;42.670;23.316;2022-12-24T08:34:07;94496.06;;;6.66;98.23
9774;BME280;4926;42.670;23.316;2022-12-24T08:36:40;94496.28;;;6.49;98.99
9774;BME280;4926;42.670;23.316;2022-12-24T08:39:07;94489.97;;;6.65;100.00
9774;BME280;4926;42.670;23.316;2022-12-24T08:41:35;94485.22;;;6.67;99.61
9774;BME280;4926;42.670;23.316;2022-12-24T08:44:02;94481.97;;;6.30;100.00
9774;BME280;4926;42.670;23.316;2022-12-24T08:46:28;94483.97;;;5.88;100.00
9774;BME280;4926;42.670;23.316;2022-12-24T08:48:55;94493.09;;;5.60;100.00
9774;BME280;4926;42.670;23.316;2022-12-24T08:51:24;94491.50;;;5.59;100.00
9774;BME280;4926;42.670;23.316;2022-12-24T08:53:51;94494.72;;;5.72;100.00
9774;BME280;4926;42.670;23.316;2022-12-24T08:56:17;94504.09;;;5.94;100.00
9774;BME280;4926;42.670;23.316;2022-12-24T08:58:45;94511.56;;;6.12;100.00
9774;BME280;4926;42.670;23.316;2022-12-24T09:01:19;94516.59;;;6.19;100.00
9774;BME280;4926;42.670;23.316;2022-12-24T09:03:47;94518.97;;;6.25;100.00
9774;BME280;4926;42.670;23.316;2022-12-24T09:06:14;94495.47;;;6.39;100.00
9774;BME280;4926;42.670;23.316;2022-12-24T09:08:44;94497.34;;;6.43;100.00
9774;BME280;4926;42.670;23.316;2022-12-24T09:11:13;94490.50;;;6.52;100.00
9774;BME280;4926;42.670;23.316;2022-12-24T09:13:40;94490.22;;;6.59;100.00
9774;BME280;4926;42.670;23.316;2022-12-24T09:16:10;94489.16;;;6.45;100.00
9774;BME280;4926;42.670;23.316;2022-12-24T09:18:41;94490.22;;;6.54;100.00
9774;BME280;4926;42.670;23.316;2022-12-24T09:21:10;94495.78;;;6.72;100.00
9774;BME280;4926;42.670;23.316;2022-12-24T09:23:39;94487.59;;;6.94;100.00
9774;BME280;4926;42.670;23.316;2022-12-24T09:26:07;94479.63;;;7.04;100.00
9774;BME280;4926;42.670;23.316;2022-12-24T09:28:34;94485.94;;;7.28;100.00
9774;BME280;4926;42.670;23.316;2022-12-24T09:31:02;94488.56;;;7.38;100.00
9774;BME280;4926;42.670;23.316;2022-12-24T09:33:32;94489.09;;;7.45;100.00
9774;BME280;4926;42.670;23.316;2022-12-24T09:36:00;94484.84;;;7.54;98.98
9774;BME280;4926;42.670;23.316;2022-12-24T09:38:27;94485.34;;;7.61;97.61
9774;BME280;4926;42.670;23.316;2022-12-24T09:41:00;94490.13;;;7.64;95.89
9774;BME280;4926;42.670;23.316;2022-12-24T09:43:30;94479.25;;;7.66;95.76
9774;BME280;4926;42.670;23.316;2022-12-24T09:46:05;94486.69;;;7.59;95.49
9774;BME280;4926;42.670;23.316;2022-12-24T09:48:38;94453.56;;;7.61;94.82
9774;BME280;4926;42.670;23.316;2022-12-24T09:51:08;94473.34;;;7.79;92.53
9774;BME280;4926;42.670;23.316;2022-12-24T09:53:39;94466.28;;;7.64;92.40
9774;BME280;4926;42.670;23.316;2022-12-24T09:56:15;94470.50;;;7.65;92.66
9774;BME280;4926;42.670;23.316;2022-12-24T09:58:45;94474.47;;;7.68;90.99
9774;BME280;4926;42.670;23.316;2022-12-24T10:01:15;94483.81;;;7.50;90.88
9774;BME280;4926;42.670;23.316;2022-12-24T10:03:43;94481.19;;;7.35;90.66
9774;BME280;4926;42.670;23.316;2022-12-24T10:06:14;94479.63;;;7.29;90.78
9774;BME280;4926;42.670;23.316;2022-12-24T10:08:55;94486.69;;;7.49;91.02
9774;BME280;4926;42.670;23.316;2022-12-24T10:11:35;94493.88;;;7.48;90.57
9774;BME280;4926;42.670;23.316;2022-12-24T10:14:17;94478.50;;;7.40;90.43
9774;BME280;4926;42.670;23.316;2022-12-24T10:16:57;94485.94;;;7.33;90.04
9774;BME280;4926;42.670;23.316;2022-12-24T10:19:36;94476.97;;;7.19;90.74
9774;BME280;4926;42.670;23.316;2022-12-24T10:22:13;94462.38;;;7.32;91.31
9774;BME280;4926;42.670;23.316;2022-12-24T10:24:48;94460.56;;;7.07;91.60
9774;BME280;4926;42.670;23.316;2022-12-24T10:27:21;94471.16;;;7.27;92.25
9774;BME280;4926;42.670;23.316;2022-12-24T10:29:55;94471.59;;;7.49;91.59
9774;BME280;4926;42.670;23.316;2022-12-24T10:32:31;94458.84;;;7.66;90.70
9774;BME280;4926;42.670;23.316;2022-12-24T10:35:07;94467.75;;;7.90;89.68
9774;BME280;4926;42.670;23.316;2022-12-24T10:37:48;94468.75;;;8.00;87.84
9774;BME280;4926;42.670;23.316;2022-12-24T10:40:27;94468.97;;;8.13;87.53
9774;BME280;4926;42.670;23.316;2022-12-24T10:43:04;94459.75;;;8.01;87.04
9774;BME280;4926;42.670;23.316;2022-12-24T10:45:43;94447.03;;;8.03;87.50
9774;BME280;4926;42.670;23.316;2022-12-24T10:48:19;94454.34;;;8.21;86.94
9774;BME280;4926;42.670;23.316;2022-12-24T10:50:55;94450.91;;;8.25;86.31
9774;BME280;4926;42.670;23.316;2022-12-24T10:53:30;94454.91;;;8.13;86.30
9774;BME280;4926;42.670;23.316;2022-12-24T10:56:03;94456.50;;;8.14;86.54
9774;BME280;4926;42.670;23.316;2022-12-24T10:58:32;94459.31;;;7.83;87.55
9774;BME280;4926;42.670;23.316;2022-12-24T11:00:59;94450.22;;;7.94;88.13
9774;BME280;4926;42.670;23.316;2022-12-24T11:03:32;94451.25;;;8.04;88.18
9774;BME280;4926;42.670;23.316;2022-12-24T11:06:10;94447.84;;;7.98;87.83
9774;BME280;4926;42.670;23.316;2022-12-24T11:08:41;94459.22;;;8.04;87.68
9774;BME280;4926;42.670;23.316;2022-12-24T11:11:11;94465.00;;;8.11;87.38
9774;BME280;4926;42.670;23.316;2022-12-24T11:13:52;94472.41;;;8.19;87.40
9774;BME280;4926;42.670;23.316;2022-12-24T11:16:27;94461.34;;;8.02;87.98
9774;BME280;4926;42.670;23.316;2022-12-24T11:18:56;94443.16;;;8.34;91.83
9774;BME280;4926;42.670;23.316;2022-12-24T11:21:26;94443.97;;;8.68;92.63
9774;BME280;4926;42.670;23.316;2022-12-24T11:23:56;94443.66;;;9.03;96.83
9774;BME280;4926;42.670;23.316;2022-12-24T11:26:25;94444.41;;;9.37;97.29
9774;BME280;4926;42.670;23.316;2022-12-24T11:29:12;94444.13;;;9.62;91.62
9774;BME280;4926;42.670;23.316;2022-12-24T11:31:43;94446.28;;;9.84;87.04
9774;BME280;4926;42.670;23.316;2022-12-24T11:34:21;94463.03;;;9.84;83.31
9774;BME280;4926;42.670;23.316;2022-12-24T11:36:54;94460.97;;;9.76;80.57
9774;BME280;4926;42.670;23.316;2022-12-24T11:39:24;94458.16;;;9.91;80.89
9774;BME280;4926;42.670;23.316;2022-12-24T11:41:54;94448.38;;;10.10;79.43
9774;BME280;4926;42.670;23.316;2022-12-24T11:44:24;94439.03;;;10.08;78.04
9774;BME280;4926;42.670;23.316;2022-12-24T11:46:53;94446.38;;;10.21;77.65
9774;BME280;4926;42.670;23.316;2022-12-24T11:49:23;94437.16;;;10.32;76.77
9774;BME280;4926;42.670;23.316;2022-12-24T11:52:21;94426.31;;;9.86;77.03
9774;BME280;4926;42.670;23.316;2022-12-24T11:55:03;94448.72;;;9.99;76.86
9774;BME280;4926;42.670;23.316;2022-12-24T11:57:41;94460.38;;;10.03;80.92
9774;BME280;4926;42.670;23.316;2022-12-24T12:00:10;94461.75;;;10.24;83.03
9774;BME280;4926;42.670;23.316;2022-12-24T12:02:38;94448.44;;;10.43;84.80
9774;BME280;4926;42.670;23.316;2022-12-24T12:05:09;94432.41;;;10.66;82.85
9774;BME280;4926;42.670;23.316;2022-12-24T12:07:44;94421.63;;;10.39;76.15
9774;BME280;4926;42.670;23.316;2022-12-24T12:10:17;94425.28;;;10.62;79.05
9774;BME280;4926;42.670;23.316;2022-12-24T12:12:46;94427.38;;;10.97;78.71
9774;BME280;4926;42.670;23.316;2022-12-24T12:15:20;94427.16;;;11.25;78.34
9774;BME280;4926;42.670;23.316;2022-12-24T12:17:50;94429.06;;;11.52;78.15
9774;BME280;4926;42.670;23.316;2022-12-24T12:20:20;94419.03;;;11.76;77.73
9774;BME280;4926;42.670;23.316;2022-12-24T12:22:59;94410.72;;;11.78;73.84
9774;BME280;4926;42.670;23.316;2022-12-24T12:25:31;94418.03;;;11.72;71.43
9774;BME280;4926;42.670;23.316;2022-12-24T12:28:10;94412.47;;;11.55;70.86
9774;BME280;4926;42.670;23.316;2022-12-24T12:30:42;94429.00;;;11.25;71.05
9774;BME280;4926;42.670;23.316;2022-12-24T12:33:15;94417.06;;;11.09;72.30
9774;BME280;4926;42.670;23.316;2022-12-24T12:35:46;94414.56;;;10.99;72.65
9774;BME280;4926;42.670;23.316;2022-12-24T12:38:20;94430.63;;;10.94;73.21
9774;BME280;4926;42.670;23.316;2022-12-24T12:41:01;94427.63;;;10.82;73.64
9774;BME280;4926;42.670;23.316;2022-12-24T12:43:51;94413.38;;;10.73;73.20
9774;BME280;4926;42.670;23.316;2022-12-24T12:46:28;94428.81;;;10.76;73.09
9774;BME280;4926;42.670;23.316;2022-12-24T12:49:16;94426.63;;;10.78;73.42
9774;BME280;4926;42.670;23.316;2022-12-24T12:51:59;94434.34;;;10.24;74.30
9774;BME280;4926;42.670;23.316;2022-12-24T12:54:51;94456.56;;;9.90;76.05
9774;BME280;4926;42.670;23.316;2022-12-24T12:57:24;94462.94;;;9.66;77.08
9774;BME280;4926;42.670;23.316;2022-12-24T12:59:56;94468.72;;;9.73;77.67
9774;BME280;4926;42.670;23.316;2022-12-24T13:02:55;94473.09;;;9.87;78.23
9774;BME280;4926;42.670;23.316;2022-12-24T13:05:49;94461.88;;;9.90;77.82
9774;BME280;4926;42.670;23.316;2022-12-24T13:08:35;94471.31;;;10.01;77.83
9774;BME280;4926;42.670;23.316;2022-12-24T13:11:23;94472.41;;;10.00;77.33
9774;BME280;4926;42.670;23.316;2022-12-24T13:14:06;94468.16;;;9.99;77.58
9774;BME280;4926;42.670;23.316;2022-12-24T13:17:02;94475.47;;;9.65;77.58
9774;BME280;4926;42.670;23.316;2022-12-24T13:19:44;94479.88;;;9.51;78.37
9774;BME280;4926;42.670;23.316;2022-12-24T13:22:16;94477.69;;;9.58;78.32
9774;BME280;4926;42.670;23.316;2022-12-24T13:24:47;94486.75;;;9.52;78.54
9774;BME280;4926;42.670;23.316;2022-12-24T13:27:19;94493.97;;;9.47;79.44
9774;BME280;4926;42.670;23.316;2022-12-24T13:29:53;94489.34;;;9.34;80.25
9774;BME280;4926;42.670;23.316;2022-12-24T13:32:47;94502.16;;;9.27;80.49
9774;BME280;4926;42.670;23.316;2022-12-24T13:35:32;94498.22;;;9.19;82.18
9774;BME280;4926;42.670;23.316;2022-12-24T13:38:31;94497.13;;;9.25;84.40